Arcola, MS

2:57 PM CDT on August 24, 2016 (GMT -0500)
Mississippi Delta | | Change Station
Active Advisory: Heat Advisory

Elev 126 ft 33.40 °N, 90.91 °W | Updated 21 seconds ago

Scattered Clouds
Scattered Clouds
93.2 °F
Feels Like 101 °F
N
1.1
Wind Variable Wind from SSE
Gusts 2.5 mph

Today
High -- | Low -- °F
--% Chance of Precip.
Yesterday
High -- | Low -- °F
Precip. -- in
Pressure 30.13 in
Visibility 10.0 miles
Clouds Few 4300 ft
Scattered Clouds 6500 ft
Scattered Clouds 8000 ft
Heat Index 101 °F
Dew Point 72 °F
Humidity 50%
Rainfall 0.00 in
Snow Depth Not available.
6:32 AM 7:38 PM
Waning Gibbous, 54% visible
METAR KGLH 241953Z AUTO 00000KT 10SM FEW043 SCT065 SCT080 33/23 A3012 RMK AO2 SLP203 T03330228
Pressure 30.13 in
Visibility 10.0 miles
Clouds Few 4300 ft
Scattered Clouds 6500 ft
Scattered Clouds 8000 ft
Heat Index 101 °F
Dew Point 72 °F
Humidity 50%
Rainfall 0.00 in
Snow Depth Not available.
6:32 AM 7:38 PM
Waning Gibbous, 54% visible
METAR KGLH 241953Z AUTO 00000KT 10SM FEW043 SCT065 SCT080 33/23 A3012 RMK AO2 SLP203 T03330228

10-Day Weather Forecast

Almanac

Astronomy

Aug. 24, 2016 Rise Set
Actual Time
Civil Twilight
Nautical Twilight
Astronomical Twilight
Moon
Length of Visible Light
Length of Day
Tomorrow will be .
, % of the Moon is Illuminated

Today's Extremes

State Highs State Lows

Community

WunderPhotos

Upload Photos

1,934,690 photos uploaded!

WunderBlog® & News

Nearby

Air Quality

  Air Quality AQ Index Pollutant
Not available.

Snow Depth

Station Depth Elevation

Earthquake Activity

City Distance Mag. Time & Date
Minimum magnitude displayed is 2.5.

Coastal Water Temperatures

Place Temperature

Stations

Nearby Weather Stations

Station Location Temp. Windchill Dew Point Humidity Wind Precip. Elev Updated Type
                   

Watches & Warnings

Heat Advisory
Issued: 4:24 AM CDT Aug. 24, 2016 – National Weather Service

... Heat advisory remains in effect from 10 am this morning to
7 PM CDT this evening...

* temperature... highs in the mid 90s combined with high humidity will
result in heat indices between 105 and 110 Wednesday afternoon.

* Impacts... heat stress will reach dangerous levels and could
lead to heat exhaustion or heat stroke for those working
outdoors.

Precautionary/preparedness actions...

Take extra precautions... if you work or spend time outside. When
possible... reschedule strenuous activities to early morning or
evening. Know the signs and symptoms of heat exhaustion and heat
stroke. Wear light weight and loose fitting clothing when
possible and drink plenty of water.